Time;durP1;ratioP1;P1;durP2;ratioP2;P2;SDS_P1;SDS_P2;PMS_P1;PMS_P2;Temp;Humidity;BMP_temperature;BMP_pressure;BME280_temperature;BME280_humidity;BME280_pressure;Samples;Min_cycle;Max_cycle;Signal;HPM_P1;HPM_P2
2021/10/19 00:02:08;;;;;;;9.80;6.30;;;;;;;13.21;88.61;101789.66;4993238;28;20038;-47
2021/10/19 00:04:36;;;;;;;8.98;5.93;;;;;;;13.23;88.17;101781.22;4992583;28;20061;-47
2021/10/19 00:07:03;;;;;;;9.98;6.30;;;;;;;13.23;88.08;101775.72;4993134;28;20049;-46
2021/10/19 00:09:31;;;;;;;10.82;6.97;;;;;;;13.24;88.20;101782.84;4992205;28;20050;-52
2021/10/19 00:11:59;;;;;;;11.65;6.22;;;;;;;13.25;88.16;101776.28;4992728;28;20038;-45
2021/10/19 00:14:26;;;;;;;12.45;6.80;;;;;;;13.27;88.81;101776.03;4992875;28;20050;-47
2021/10/19 00:16:54;;;;;;;12.02;7.28;;;;;;;13.28;88.50;101783.19;4992827;28;20047;-47
2021/10/19 00:19:21;;;;;;;10.65;6.85;;;;;;;13.28;88.97;101783.19;4992305;28;20042;-46
2021/10/19 00:21:49;;;;;;;13.05;6.60;;;;;;;13.27;89.38;101782.34;4992747;28;20042;-46
2021/10/19 00:24:16;;;;;;;10.48;6.70;;;;;;;13.28;88.88;101788.66;4992154;28;20390;-47
2021/10/19 00:26:44;;;;;;;11.45;6.05;;;;;;;13.29;89.07;101782.09;4992853;28;20052;-47
2021/10/19 00:29:11;;;;;;;10.18;6.20;;;;;;;13.29;89.26;101782.09;4992329;28;20042;-47
2021/10/19 00:31:39;;;;;;;10.80;6.47;;;;;;;13.29;89.66;101788.38;4992598;28;20054;-47
2021/10/19 00:34:07;;;;;;;10.30;6.03;;;;;;;13.31;89.49;101808.09;4992055;28;20057;-48
2021/10/19 00:36:34;;;;;;;9.65;6.70;;;;;;;13.31;89.70;101799.06;4992662;28;20038;-45
2021/10/19 00:39:02;;;;;;;10.25;6.47;;;;;;;13.32;89.64;101803.44;4991742;28;20034;-48
2021/10/19 00:41:30;;;;;;;9.13;5.90;;;;;;;13.33;89.86;101788.69;4992363;28;20042;-46
2021/10/19 00:43:57;;;;;;;15.45;6.50;;;;;;;13.32;89.98;101782.38;4992539;28;20057;-46
2021/10/19 00:46:25;;;;;;;11.95;6.50;;;;;;;13.33;90.26;101786.78;4992399;28;20046;-47
2021/10/19 00:48:53;;;;;;;12.63;6.22;;;;;;;13.34;90.13;101787.59;4992075;28;20567;-47
2021/10/19 00:51:20;;;;;;;10.88;6.00;;;;;;;13.33;90.29;101778.56;4992021;28;20042;-47
2021/10/19 00:53:48;;;;;;;9.75;5.82;;;;;;;13.32;90.32;101781.56;5007108;28;20042;-45
2021/10/19 00:56:15;;;;;;;10.43;6.30;;;;;;;13.32;90.96;101785.13;4992411;28;20161;-47
2021/10/19 00:58:43;;;;;;;12.20;6.43;;;;;;;13.33;90.77;101769.53;4992224;28;20043;-48
2021/10/19 01:01:11;;;;;;;11.10;6.30;;;;;;;13.33;90.98;101775.81;4990757;28;20047;-47
2021/10/19 01:03:39;;;;;;;10.23;6.07;;;;;;;13.33;91.30;101770.34;4991961;28;20030;-46
2021/10/19 01:06:08;;;;;;;10.95;6.38;;;;;;;13.34;91.43;101771.16;4992168;28;20109;-45
2021/10/19 01:08:37;;;;;;;10.77;6.70;;;;;;;13.33;91.81;101770.34;5007138;28;20034;-48
2021/10/19 01:11:07;;;;;;;11.18;6.85;;;;;;;13.35;92.09;101778.31;4991909;28;20558;-44
2021/10/19 01:13:36;;;;;;;10.15;6.10;;;;;;;13.35;92.28;101781.88;4991715;28;20050;-47
2021/10/19 01:16:08;;;;;;;12.20;6.30;;;;;;;13.37;92.05;101781.59;4986475;28;20050;-48
2021/10/19 01:18:37;;;;;;;11.55;6.88;;;;;;;13.36;92.33;101775.28;4991805;28;20049;-47
2021/10/19 01:21:06;;;;;;;11.40;6.65;;;;;;;13.38;92.40;101766.84;4992056;28;20038;-47
2021/10/19 01:23:34;;;;;;;10.55;6.10;;;;;;;13.37;92.55;101765.16;4991640;28;20042;-49
2021/10/19 01:26:03;;;;;;;9.77;6.70;;;;;;;13.37;93.08;101766.00;4991978;28;20050;-48
2021/10/19 01:28:32;;;;;;;9.52;6.53;;;;;;;13.38;93.27;101755.88;4991477;28;20563;-48
2021/10/19 01:31:00;;;;;;;11.73;6.85;;;;;;;13.38;93.60;101758.63;4992119;28;20108;-47
2021/10/19 01:33:29;;;;;;;10.63;6.78;;;;;;;13.37;94.40;101752.31;4991562;28;20046;-46
2021/10/19 01:35:57;;;;;;;13.30;6.70;;;;;;;13.35;94.65;101751.75;4993485;28;20093;-47
2021/10/19 01:38:27;;;;;;;10.68;6.90;;;;;;;13.35;94.71;101745.47;4995655;28;20089;-48
2021/10/19 01:40:56;;;;;;;10.20;6.97;;;;;;;13.34;95.42;101741.06;4995429;28;20578;-48
2021/10/19 01:43:26;;;;;;;9.70;6.43;;;;;;;13.33;96.25;101742.16;4995722;28;20046;-45
2021/10/19 01:45:59;;;;;;;9.98;6.93;;;;;;;13.33;95.79;101731.22;4995536;28;20129;-49
2021/10/19 01:48:28;;;;;;;9.68;6.28;;;;;;;13.32;95.91;101713.13;4995411;28;20057;-45
2021/10/19 01:50:56;;;;;;;12.90;6.93;;;;;;;13.32;96.79;101708.47;4995164;28;20535;-48
2021/10/19 01:53:24;;;;;;;14.00;6.45;;;;;;;13.32;97.26;101696.72;4995684;28;20501;-49
2021/10/19 01:55:53;;;;;;;9.82;6.28;;;;;;;13.32;97.72;101702.19;4994952;28;20085;-47
2021/10/19 01:58:24;;;;;;;12.23;6.30;;;;;;;13.32;98.36;101702.19;4995026;28;20045;-47
2021/10/19 02:00:53;;;;;;;8.82;6.32;;;;;;;13.31;97.93;101697.81;4995103;28;20030;-46
2021/10/19 02:03:22;;;;;;;9.20;6.05;;;;;;;13.33;98.16;101695.63;4990876;28;20493;-47
2021/10/19 02:05:50;;;;;;;10.05;6.10;;;;;;;13.33;98.42;101692.91;4992155;28;20061;-47
2021/10/19 02:08:18;;;;;;;9.95;6.10;;;;;;;13.36;98.91;101703.31;5010253;28;20421;-47
2021/10/19 02:10:46;;;;;;;10.45;5.95;;;;;;;13.37;99.20;101694.84;4994937;28;20058;-44
2021/10/19 02:13:14;;;;;;;11.50;6.22;;;;;;;13.37;99.10;101681.16;4995338;28;20081;-46
2021/10/19 02:15:41;;;;;;;10.75;5.95;;;;;;;13.39;99.56;101675.41;4994941;28;20054;-44
2021/10/19 02:18:10;;;;;;;10.32;6.60;;;;;;;13.41;100.00;101675.97;4994304;28;20096;-49
2021/10/19 02:20:38;;;;;;;10.82;5.80;;;;;;;13.41;100.00;101675.97;4994875;28;20050;-47
2021/10/19 02:23:06;;;;;;;11.95;6.00;;;;;;;13.41;100.00;101674.03;4989755;28;20105;-48
2021/10/19 02:25:34;;;;;;;9.10;5.47;;;;;;;13.44;100.00;101680.88;4985765;28;20043;-45
2021/10/19 02:28:01;;;;;;;10.95;6.10;;;;;;;13.44;100.00;101672.69;4994714;28;20109;-46
2021/10/19 02:30:29;;;;;;;9.55;6.10;;;;;;;13.44;100.00;101667.19;4995093;28;20108;-47
2021/10/19 02:32:57;;;;;;;11.07;5.53;;;;;;;13.45;100.00;101668.88;4994508;28;20050;-47
2021/10/19 02:35:24;;;;;;;10.35;5.72;;;;;;;13.45;100.00;101671.59;4994528;28;20069;-48
2021/10/19 02:37:57;;;;;;;8.68;5.38;;;;;;;13.46;100.00;101661.47;4994688;28;20046;-48
2021/10/19 02:40:25;;;;;;;9.52;5.57;;;;;;;13.46;100.00;101664.22;4990434;28;20061;-44
2021/10/19 02:42:53;;;;;;;10.93;6.40;;;;;;;13.46;100.00;101659.56;4988383;28;20460;-47
2021/10/19 02:45:21;;;;;;;10.75;6.45;;;;;;;13.47;100.00;101655.75;4994083;28;20452;-47
2021/10/19 02:47:48;;;;;;;10.23;6.32;;;;;;;13.48;100.00;101656.56;4988056;28;20453;-48
2021/10/19 02:50:16;;;;;;;12.07;6.25;;;;;;;13.47;100.00;101658.47;4992389;28;20046;-46
2021/10/19 02:52:43;;;;;;;8.68;5.97;;;;;;;13.48;100.00;101651.09;4994626;28;20449;-47
2021/10/19 02:55:16;;;;;;;9.63;6.20;;;;;;;13.50;100.00;101648.91;4994276;28;20409;-47
2021/10/19 02:57:45;;;;;;;7.93;5.05;;;;;;;13.50;100.00;101643.44;4994391;28;20046;-46
2021/10/19 03:00:13;;;;;;;8.55;5.60;;;;;;;13.49;100.00;101647.25;4993002;28;20050;-47
2021/10/19 03:02:41;;;;;;;8.65;5.72;;;;;;;13.48;100.00;101646.44;4993448;28;20046;-44
2021/10/19 03:05:09;;;;;;;8.60;5.93;;;;;;;13.49;100.00;101645.31;4993715;28;20046;-48
2021/10/19 03:07:37;;;;;;;9.90;5.95;;;;;;;13.49;100.00;101642.59;4994491;28;20046;-46
2021/10/19 03:10:05;;;;;;;9.05;6.07;;;;;;;13.49;100.00;101644.50;4993949;28;20049;-48
2021/10/19 03:12:33;;;;;;;9.23;5.55;;;;;;;13.48;100.00;101646.44;4994395;28;20038;-47
2021/10/19 03:15:01;;;;;;;8.73;5.78;;;;;;;13.48;100.00;101635.47;4993703;28;20046;-45
2021/10/19 03:17:28;;;;;;;8.23;5.72;;;;;;;13.49;100.00;101639.03;4993697;28;20125;-48
2021/10/19 03:19:56;;;;;;;8.55;5.22;;;;;;;13.48;100.00;101640.94;4993868;28;20493;-47
2021/10/19 03:22:23;;;;;;;10.82;6.07;;;;;;;13.49;100.00;101647.25;4993932;28;20042;-47
2021/10/19 03:24:51;;;;;;;11.50;6.15;;;;;;;13.49;100.00;101636.28;4993824;28;20035;-47
2021/10/19 03:27:18;;;;;;;8.88;5.30;;;;;;;13.50;100.00;101637.97;4993789;28;20087;-47
2021/10/19 03:30:06;;;;;;;7.72;5.13;;;;;;;13.50;100.00;101629.75;4993012;28;20053;-46
2021/10/19 03:32:33;;;;;;;9.07;5.75;;;;;;;13.49;100.00;101642.59;4993060;28;20086;-48
2021/10/19 03:35:01;;;;;;;9.02;5.18;;;;;;;13.50;100.00;101637.97;4993725;28;20038;-47
2021/10/19 03:37:29;;;;;;;8.63;5.55;;;;;;;13.49;100.00;101639.84;4993761;28;20043;-48
2021/10/19 03:39:56;;;;;;;10.52;6.10;;;;;;;13.50;100.00;101630.56;4993559;28;20042;-48
2021/10/19 03:42:24;;;;;;;9.40;5.32;;;;;;;13.49;100.00;101626.16;4993812;28;20417;-47
2021/10/19 03:44:51;;;;;;;8.30;5.50;;;;;;;13.50;100.00;101622.34;4992934;28;20104;-48
2021/10/19 03:47:19;;;;;;;10.05;6.05;;;;;;;13.49;100.00;101619.88;4992603;28;20038;-47
2021/10/19 03:49:46;;;;;;;15.02;6.32;;;;;;;13.49;100.00;101620.69;4993684;28;20403;-48
2021/10/19 03:52:14;;;;;;;10.57;5.80;;;;;;;13.49;100.00;101609.72;4979998;28;20046;-48
2021/10/19 03:54:42;;;;;;;9.18;5.50;;;;;;;13.48;100.00;101607.28;4993316;28;20050;-47
2021/10/19 03:57:09;;;;;;;9.25;6.13;;;;;;;13.49;100.00;101609.72;4992960;28;20039;-48
2021/10/19 03:59:37;;;;;;;7.95;5.32;;;;;;;13.48;100.00;101608.09;4991520;28;20038;-48
2021/10/19 04:02:04;;;;;;;10.88;5.78;;;;;;;13.49;100.00;101620.69;4992538;28;20038;-47
2021/10/19 04:04:34;;;;;;;8.40;5.55;;;;;;;13.50;100.00;101618.78;4993316;28;20045;-46
2021/10/19 04:07:02;;;;;;;9.75;5.60;;;;;;;13.50;100.00;101616.06;4992883;28;20498;-45
2021/10/19 04:09:30;;;;;;;9.75;5.78;;;;;;;13.49;100.00;101620.69;4993029;28;20042;-47
2021/10/19 04:11:57;;;;;;;10.23;6.00;;;;;;;13.49;100.00;101626.16;4992851;28;20104;-47
2021/10/19 04:14:25;;;;;;;8.50;5.70;;;;;;;13.50;100.00;101622.34;4992794;28;20046;-47
2021/10/19 04:16:52;;;;;;;8.57;5.10;;;;;;;13.50;100.00;101622.34;4992316;28;20446;-50
2021/10/19 04:19:20;;;;;;;8.10;5.30;;;;;;;13.51;100.00;101621.25;4992641;28;20038;-48
2021/10/19 04:21:49;;;;;;;8.60;5.13;;;;;;;13.52;100.00;101614.69;4992730;28;20650;-47
2021/10/19 04:24:17;;;;;;;9.02;5.40;;;;;;;13.53;100.00;101624.53;4990795;28;20065;-45
2021/10/19 04:26:45;;;;;;;8.93;5.43;;;;;;;13.54;100.00;101614.41;4992810;28;20050;-48
2021/10/19 04:29:17;;;;;;;9.02;5.47;;;;;;;13.54;100.00;101625.34;4990799;28;20137;-48
2021/10/19 04:31:45;;;;;;;8.82;5.00;;;;;;;13.56;100.00;101632.22;4992154;28;20057;-47
2021/10/19 04:34:13;;;;;;;9.00;5.20;;;;;;;13.57;100.00;101627.56;4992374;28;20401;-45
2021/10/19 04:36:40;;;;;;;7.97;4.80;;;;;;;13.56;100.00;101628.66;4992584;28;20039;-48
2021/10/19 04:39:08;;;;;;;8.63;5.28;;;;;;;13.56;100.00;101623.19;4991712;28;20046;-48
2021/10/19 04:41:43;;;;;;;9.02;4.85;;;;;;;13.58;100.00;101626.47;4992564;28;20054;-50
2021/10/19 04:44:11;;;;;;;6.88;4.63;;;;;;;13.58;100.00;101624.56;4992286;28;20046;-48
2021/10/19 04:46:40;;;;;;;7.95;5.03;;;;;;;13.58;100.00;101621.00;4991921;28;20389;-47
2021/10/19 04:49:09;;;;;;;8.32;4.38;;;;;;;13.57;100.00;101620.19;4991875;28;20049;-48
2021/10/19 04:51:36;;;;;;;8.18;5.13;;;;;;;13.59;100.00;101622.66;4975125;28;20050;-50
2021/10/19 04:54:04;;;;;;;6.82;4.80;;;;;;;13.59;100.00;101625.41;4991751;28;20049;-49
2021/10/19 04:56:31;;;;;;;6.90;4.45;;;;;;;13.59;100.00;101631.69;5007228;28;20042;-45
2021/10/19 04:58:59;;;;;;;7.25;4.63;;;;;;;13.58;100.00;101624.56;4991079;28;20409;-47
2021/10/19 05:01:26;;;;;;;8.60;4.95;;;;;;;13.59;100.00;101633.63;4987524;28;20039;-47
2021/10/19 05:03:54;;;;;;;7.93;5.07;;;;;;;13.59;100.00;101626.22;4990729;28;20404;-46
2021/10/19 05:06:22;;;;;;;9.00;5.15;;;;;;;13.61;100.00;101617.72;4992046;28;20054;-46
2021/10/19 05:08:50;;;;;;;8.27;4.95;;;;;;;13.60;100.00;101618.81;4991595;28;20509;-48
2021/10/19 05:11:17;;;;;;;7.55;4.78;;;;;;;13.62;100.00;101622.13;4992594;28;20054;-48
2021/10/19 05:13:45;;;;;;;6.82;4.45;;;;;;;13.62;100.00;101620.19;4991761;28;20096;-49
2021/10/19 05:16:12;;;;;;;9.07;4.88;;;;;;;13.60;100.00;101611.41;5006784;28;20125;-47
2021/10/19 05:18:40;;;;;;;7.07;4.65;;;;;;;13.62;100.00;101620.19;4992011;28;20030;-47
2021/10/19 05:21:08;;;;;;;8.35;5.15;;;;;;;13.61;100.00;101607.59;4986377;28;20046;-46
2021/10/19 05:23:35;;;;;;;9.77;4.95;;;;;;;13.61;100.00;101604.88;4991684;28;20046;-46
2021/10/19 05:26:03;;;;;;;8.25;5.50;;;;;;;13.63;100.00;101601.84;4992065;28;20038;-48
2021/10/19 05:28:32;;;;;;;8.80;4.95;;;;;;;13.63;100.00;101604.59;4991848;28;20119;-48
2021/10/19 05:31:00;;;;;;;7.93;4.47;;;;;;;13.64;100.00;101601.59;4991411;28;20054;-48
2021/10/19 05:33:28;;;;;;;7.22;4.45;;;;;;;13.64;100.00;101596.09;4992169;28;20149;-50
2021/10/19 05:35:55;;;;;;;8.45;5.20;;;;;;;13.64;100.00;101596.09;4991900;28;20043;-50
2021/10/19 05:38:23;;;;;;;9.80;5.43;;;;;;;13.65;100.00;101599.66;4991300;28;20395;-46
2021/10/19 05:40:50;;;;;;;6.60;4.43;;;;;;;13.67;100.00;101602.16;4991220;28;20101;-50
2021/10/19 05:43:18;;;;;;;8.85;4.80;;;;;;;13.68;100.00;101595.56;4991774;28;20449;-46
2021/10/19 05:45:45;;;;;;;5.22;3.85;;;;;;;13.68;100.00;101595.56;4991124;28;20043;-51
2021/10/19 05:48:13;;;;;;;6.85;3.90;;;;;;;13.70;100.00;101587.91;4990509;28;20114;-50
2021/10/19 05:50:40;;;;;;;5.90;4.15;;;;;;;13.72;100.00;101591.19;4991284;28;20038;-48
2021/10/19 05:53:08;;;;;;;9.52;4.78;;;;;;;13.73;100.00;101593.66;4991448;28;20055;-47
2021/10/19 05:55:37;;;;;;;5.35;3.63;;;;;;;13.73;100.00;101590.09;4991345;28;20084;-47
2021/10/19 05:58:04;;;;;;;7.97;4.03;;;;;;;13.75;100.00;101582.44;4991157;28;20485;-47
2021/10/19 06:00:50;;;;;;;8.35;4.72;;;;;;;13.76;100.00;101575.88;4979062;28;20050;-45
2021/10/19 06:03:18;;;;;;;7.68;4.97;;;;;;;13.74;100.00;101584.34;4991661;28;20437;-48
2021/10/19 06:05:46;;;;;;;5.75;3.78;;;;;;;13.77;100.00;101588.47;4990735;28;20042;-46
2021/10/19 06:08:14;;;;;;;7.70;4.40;;;;;;;13.79;100.00;101580.81;4991454;28;20046;-45
2021/10/19 06:10:41;;;;;;;6.32;4.38;;;;;;;13.78;100.00;101590.09;4991089;28;20042;-44
2021/10/19 06:13:09;;;;;;;5.93;4.18;;;;;;;13.78;100.00;101592.84;4991484;28;20042;-47
2021/10/19 06:15:37;;;;;;;6.80;4.68;;;;;;;13.78;100.00;101590.09;4991232;28;20046;-45
2021/10/19 06:18:04;;;;;;;7.15;4.07;;;;;;;13.77;100.00;101594.75;4991046;28;20037;-46
2021/10/19 06:20:32;;;;;;;5.63;4.15;;;;;;;13.77;100.00;101599.41;4991003;28;20559;-46
2021/10/19 06:23:00;;;;;;;6.47;4.47;;;;;;;13.78;100.00;101598.31;4994658;28;20117;-46
2021/10/19 06:25:27;;;;;;;7.45;4.18;;;;;;;13.77;100.00;101594.75;4994626;28;20525;-45
2021/10/19 06:27:55;;;;;;;7.07;4.55;;;;;;;13.78;100.00;101590.09;4994399;28;20046;-46
2021/10/19 06:30:22;;;;;;;7.00;4.55;;;;;;;13.79;100.00;101586.28;4994031;28;20058;-46
2021/10/19 06:32:50;;;;;;;8.02;4.78;;;;;;;13.80;100.00;101582.44;4994479;28;20522;-46
2021/10/19 06:35:18;;;;;;;6.03;4.03;;;;;;;13.80;100.00;101577.78;4994876;28;20046;-43
2021/10/19 06:37:45;;;;;;;6.40;4.40;;;;;;;13.80;100.00;101582.44;4994755;28;20042;-46
2021/10/19 06:40:13;;;;;;;6.15;4.07;;;;;;;13.81;100.00;101584.09;4994037;28;20042;-42
2021/10/19 06:42:42;;;;;;;8.40;4.82;;;;;;;13.83;100.00;101579.19;4994487;28;20414;-44
2021/10/19 06:45:10;;;;;;;9.95;5.28;;;;;;;13.86;100.00;101581.38;4994398;28;20078;-45
2021/10/19 06:47:38;;;;;;;15.13;5.97;;;;;;;13.88;100.00;101579.19;4994635;28;20050;-45
2021/10/19 06:50:07;;;;;;;15.55;7.13;;;;;;;13.89;100.00;101580.00;4994271;28;20047;-44
2021/10/19 06:52:38;;;;;;;13.50;5.75;;;;;;;13.89;100.00;101578.06;4994686;28;20050;-46
2021/10/19 06:55:07;;;;;;;13.07;5.90;;;;;;;13.90;100.00;101574.22;4994213;28;20421;-45
2021/10/19 06:57:41;;;;;;;11.45;4.85;;;;;;;13.91;100.00;101577.81;4994239;28;20379;-44
2021/10/19 07:00:14;;;;;;;9.80;4.88;;;;;;;13.91;100.00;101586.84;4993865;28;20085;-44
2021/10/19 07:02:44;;;;;;;7.28;4.88;;;;;;;13.92;100.00;101588.47;4993969;28;20077;-42
2021/10/19 07:05:12;;;;;;;8.15;4.57;;;;;;;13.92;100.00;101591.22;4994001;28;20554;-46
2021/10/19 07:07:41;;;;;;;7.00;4.40;;;;;;;13.93;100.00;101586.59;4994326;28;20125;-47
2021/10/19 07:10:10;;;;;;;7.82;4.55;;;;;;;13.93;100.00;101587.41;4994005;28;20054;-47
2021/10/19 07:12:39;;;;;;;8.88;4.80;;;;;;;13.95;100.00;101587.13;4991748;28;20042;-46
2021/10/19 07:15:07;;;;;;;11.02;4.88;;;;;;;13.96;100.00;101588.78;4993959;28;20058;-46
2021/10/19 07:17:35;;;;;;;7.78;4.85;;;;;;;13.96;100.00;101586.84;4993814;28;20512;-47
2021/10/19 07:20:03;;;;;;;9.10;4.60;;;;;;;13.98;100.00;101586.59;4993783;28;20042;-45
2021/10/19 07:22:31;;;;;;;10.10;5.05;;;;;;;13.98;100.00;101576.44;4993709;28;20041;-44
2021/10/19 07:24:59;;;;;;;7.10;4.68;;;;;;;13.98;100.00;101576.44;4993765;28;20042;-44
2021/10/19 07:27:27;;;;;;;17.13;7.40;;;;;;;14.02;100.00;101580.31;4993939;28;20431;-43
2021/10/19 07:29:55;;;;;;;11.02;5.57;;;;;;;14.03;100.00;101581.13;4991969;28;20040;-46
2021/10/19 07:32:22;;;;;;;17.75;7.25;;;;;;;14.05;100.00;101585.22;4992935;28;20046;-46
2021/10/19 07:34:52;;;;;;;16.75;7.22;;;;;;;14.06;100.00;101603.31;4993158;28;20046;-46
2021/10/19 07:37:20;;;;;;;15.10;6.97;;;;;;;14.10;100.00;101586.34;4993748;28;20105;-44
2021/10/19 07:39:48;;;;;;;15.10;6.32;;;;;;;14.10;100.00;101591.81;4991881;28;20065;-46
2021/10/19 07:42:16;;;;;;;13.73;6.05;;;;;;;14.13;100.00;101596.75;4993367;28;20050;-44
2021/10/19 07:44:43;;;;;;;10.48;5.18;;;;;;;14.14;100.00;101590.16;4993006;28;20063;-44
2021/10/19 07:47:11;;;;;;;13.95;6.15;;;;;;;14.15;100.00;101592.63;4993175;28;20046;-46
2021/10/19 07:49:38;;;;;;;11.32;5.57;;;;;;;14.16;100.00;101601.66;4993654;28;20368;-43
2021/10/19 07:52:06;;;;;;;16.50;6.55;;;;;;;14.18;100.00;101610.44;4992678;28;20520;-45
2021/10/19 07:54:34;;;;;;;11.13;4.80;;;;;;;14.19;100.00;101606.59;4993246;28;20058;-46
2021/10/19 07:57:02;;;;;;;10.93;4.93;;;;;;;14.20;100.00;101603.59;4993345;28;20053;-44
2021/10/19 07:59:30;;;;;;;13.48;5.70;;;;;;;14.21;100.00;101604.41;4993079;28;20039;-47
2021/10/19 08:01:58;;;;;;;10.00;4.45;;;;;;;14.21;100.00;101605.22;4992756;28;20404;-47
2021/10/19 08:04:25;;;;;;;12.95;5.13;;;;;;;14.22;100.00;101606.06;4992955;28;20557;-46
2021/10/19 08:06:53;;;;;;;14.38;6.05;;;;;;;14.22;100.00;101606.88;4992685;28;20046;-46
2021/10/19 08:09:21;;;;;;;14.07;5.43;;;;;;;14.22;100.00;101601.41;4992658;28;20520;-48
2021/10/19 08:11:48;;;;;;;9.02;4.50;;;;;;;14.23;100.00;101599.47;4992853;28;20157;-46
2021/10/19 08:14:16;;;;;;;12.93;5.40;;;;;;;14.25;100.00;101589.88;4993914;28;20038;-45
2021/10/19 08:16:44;;;;;;;8.88;4.22;;;;;;;14.25;100.00;101595.38;4992896;28;20050;-48
2021/10/19 08:19:12;;;;;;;14.35;5.45;;;;;;;14.26;100.00;101594.28;4993086;28;20051;-46
2021/10/19 08:21:39;;;;;;;11.15;4.90;;;;;;;14.30;100.00;101596.47;4993037;28;20038;-46
2021/10/19 08:24:07;;;;;;;12.02;4.95;;;;;;;14.31;100.00;101596.22;4992623;28;20513;-47
2021/10/19 08:26:39;;;;;;;12.50;5.00;;;;;;;14.34;100.00;101601.13;4992604;28;20038;-46
2021/10/19 08:29:07;;;;;;;13.90;5.20;;;;;;;14.36;100.00;101601.69;4992715;28;20046;-48
2021/10/19 08:31:34;;;;;;;14.88;5.15;;;;;;;14.38;100.00;101602.25;4991843;28;20521;-46
2021/10/19 08:34:02;;;;;;;10.43;4.30;;;;;;;14.41;100.00;101603.63;4992346;28;20497;-46
2021/10/19 08:36:30;;;;;;;7.43;3.58;;;;;;;14.42;100.00;101589.59;4992173;28;20042;-45
2021/10/19 08:38:57;;;;;;;8.63;3.90;;;;;;;14.46;100.00;101582.50;4992530;28;20046;-48
2021/10/19 08:41:30;;;;;;;12.35;4.63;;;;;;;14.47;100.00;101584.13;4992389;28;20053;-47
2021/10/19 08:43:58;;;;;;;10.73;4.88;;;;;;;14.47;100.00;101595.09;4992034;28;20038;-47
2021/10/19 08:46:25;;;;;;;11.93;4.90;;;;;;;14.49;100.00;101590.16;4992231;28;20489;-46
2021/10/19 08:48:53;;;;;;;7.10;3.40;;;;;;;14.49;100.00;101590.16;4992478;28;20093;-44
2021/10/19 08:51:20;;;;;;;12.07;5.28;;;;;;;14.54;100.00;101591.28;4992389;28;20461;-44
2021/10/19 08:53:48;;;;;;;10.52;4.28;;;;;;;14.55;100.00;101590.19;4991916;28;20042;-43
2021/10/19 08:56:19;;;;;;;8.38;4.13;;;;;;;14.57;100.00;101591.53;4992471;28;20050;-44
2021/10/19 08:58:59;;;;;;;11.52;4.85;;;;;;;14.58;100.00;101590.47;4992035;28;20417;-43
2021/10/19 09:01:38;;;;;;;5.95;3.38;;;;;;;14.58;100.00;101589.66;4992090;28;20039;-47
2021/10/19 09:04:12;;;;;;;13.93;4.40;;;;;;;14.61;100.00;101608.28;4991560;28;20489;-47
2021/10/19 09:06:41;;;;;;;11.27;4.38;;;;;;;14.61;100.00;101602.81;4992136;28;20072;-44
2021/10/19 09:09:12;;;;;;;13.55;4.75;;;;;;;14.63;100.00;101597.88;4991945;28;20050;-43
2021/10/19 09:11:47;;;;;;;14.80;5.85;;;;;;;14.68;100.00;101601.41;5007300;28;20413;-47
2021/10/19 09:14:16;;;;;;;9.00;3.85;;;;;;;14.69;100.00;101594.81;4991626;28;20050;-43
2021/10/19 09:16:47;;;;;;;9.25;4.25;;;;;;;14.73;100.00;101599.78;4991965;28;20409;-47
2021/10/19 09:19:17;;;;;;;9.85;3.92;;;;;;;14.74;100.00;101596.72;4991907;28;20058;-47
2021/10/19 09:22:04;;;;;;;10.43;4.25;;;;;;;14.75;100.00;101597.56;4989950;28;20074;-46
2021/10/19 09:24:40;;;;;;;7.60;3.30;;;;;;;14.75;100.00;101586.59;4987760;28;20057;-46
2021/10/19 09:27:14;;;;;;;12.82;5.00;;;;;;;14.77;100.00;101589.88;4992104;28;20046;-46
2021/10/19 09:29:48;;;;;;;9.40;3.97;;;;;;;14.81;100.00;101586.28;4991814;28;20042;-45
2021/10/19 09:32:18;;;;;;;7.00;3.22;;;;;;;14.90;100.00;101584.63;4991583;28;20062;-43
2021/10/19 09:34:47;;;;;;;7.93;3.42;;;;;;;14.96;100.00;101582.72;4990131;28;20058;-43
2021/10/19 09:37:20;;;;;;;6.65;3.45;;;;;;;14.99;100.00;101592.31;4991682;28;20054;-46
2021/10/19 09:39:49;;;;;;;7.90;3.65;;;;;;;14.97;100.00;101586.28;4991040;28;20046;-45
2021/10/19 09:42:24;;;;;;;7.28;3.63;;;;;;;14.95;100.00;101602.19;4991475;28;20494;-45
2021/10/19 09:44:59;;;;;;;6.95;3.28;;;;;;;14.91;100.00;101597.25;4991209;28;20405;-47
2021/10/19 09:47:36;;;;;;;4.18;2.55;;;;;;;14.91;100.00;101596.41;4991594;28;20525;-44
2021/10/19 09:50:08;;;;;;;3.72;2.70;;;;;;;14.91;100.00;101600.00;4991216;28;20043;-46
2021/10/19 09:52:39;;;;;;;7.60;3.10;;;;;;;14.90;100.00;101603.03;4991810;28;20409;-47
2021/10/19 09:55:10;;;;;;;7.57;3.40;;;;;;;14.90;100.00;101595.59;4991030;28;20035;-45
2021/10/19 09:57:39;;;;;;;6.63;3.20;;;;;;;14.92;100.00;101603.56;4994187;28;20618;-45
2021/10/19 10:00:07;;;;;;;4.00;2.80;;;;;;;14.92;100.00;101600.81;4995347;28;20038;-48
2021/10/19 10:02:40;;;;;;;5.85;3.08;;;;;;;14.94;100.00;101595.06;4995090;28;20038;-45
2021/10/19 10:05:08;;;;;;;5.95;3.50;;;;;;;14.97;100.00;101600.81;4994465;28;20042;-43
2021/10/19 10:07:37;;;;;;;6.28;3.50;;;;;;;15.01;100.00;101595.56;4995493;28;20045;-51
2021/10/19 10:10:06;;;;;;;6.75;3.53;;;;;;;15.03;100.00;101601.59;4995463;28;20050;-43
2021/10/19 10:12:34;;;;;;;7.20;3.97;;;;;;;15.02;100.00;101599.97;4995017;28;20382;-48
2021/10/19 10:15:06;;;;;;;5.70;3.75;;;;;;;15.03;100.00;101601.59;4994680;28;20331;-50
2021/10/19 10:17:33;;;;;;;6.45;4.10;;;;;;;15.04;100.00;101600.53;4993503;28;20512;-47
2021/10/19 10:20:09;;;;;;;8.40;4.68;;;;;;;15.09;100.00;101606.00;4994661;28;20054;-48
2021/10/19 10:22:44;;;;;;;8.93;4.40;;;;;;;15.11;100.00;101604.63;4994667;28;20489;-45
2021/10/19 10:25:16;;;;;;;7.70;4.18;;;;;;;15.13;100.00;101599.66;4995191;28;20046;-47
2021/10/19 10:27:44;;;;;;;7.40;4.68;;;;;;;15.15;100.00;101606.78;4994661;28;20046;-48
2021/10/19 10:30:23;;;;;;;9.88;4.60;;;;;;;15.17;100.00;101599.91;4994658;28;20527;-48
2021/10/19 10:32:53;;;;;;;10.73;4.80;;;;;;;15.19;100.00;101594.97;4994135;28;20058;-47
2021/10/19 10:35:25;;;;;;;8.52;4.47;;;;;;;15.20;100.00;101599.38;4994889;28;20050;-44
2021/10/19 10:37:55;;;;;;;10.25;4.90;;;;;;;15.22;100.00;101599.91;4994634;28;20050;-44
2021/10/19 10:40:33;;;;;;;10.20;5.35;;;;;;;15.23;100.00;101601.56;4981826;28;20047;-45
2021/10/19 10:43:15;;;;;;;11.73;5.10;;;;;;;15.26;100.00;101592.75;4994579;28;20039;-45
2021/10/19 10:45:43;;;;;;;14.57;5.07;;;;;;;15.29;100.00;101608.66;4994330;28;20081;-47
2021/10/19 10:48:11;;;;;;;8.65;4.70;;;;;;;15.31;100.00;101602.91;4992604;28;20049;-47
2021/10/19 10:50:38;;;;;;;13.75;5.53;;;;;;;15.33;100.00;101603.44;4994341;28;20489;-47
2021/10/19 10:53:09;;;;;;;9.85;4.78;;;;;;;15.40;100.00;101592.97;4296605;28;10000825;-47
2021/10/19 10:55:42;;;;;;;8.07;4.97;;;;;;;15.43;100.00;101588.84;4978428;28;20500;-47
2021/10/19 10:58:21;;;;;;;8.68;5.40;;;;;;;15.43;100.00;101588.84;4992056;28;20501;-45
2021/10/19 11:00:48;;;;;;;10.68;5.32;;;;;;;15.44;100.00;101588.56;4978827;28;20414;-45
2021/10/19 11:03:18;;;;;;;10.40;4.78;;;;;;;15.46;100.00;101585.53;4992154;28;20046;-46
2021/10/19 11:05:58;;;;;;;10.00;5.00;;;;;;;15.50;100.00;101575.63;4991577;28;20045;-47
2021/10/19 11:08:32;;;;;;;9.38;5.25;;;;;;;15.55;100.00;101589.31;4991550;28;20753;-46
2021/10/19 11:11:17;;;;;;;11.77;5.65;;;;;;;15.59;100.00;101573.94;4979186;28;20046;-45
2021/10/19 11:13:58;;;;;;;8.38;4.95;;;;;;;15.61;100.00;101571.72;4991975;28;20058;-47
2021/10/19 11:16:42;;;;;;;8.88;5.28;;;;;;;15.61;100.00;101576.38;4990977;28;20042;-47
2021/10/19 11:19:19;;;;;;;9.02;5.28;;;;;;;15.61;100.00;101570.88;4991409;28;20517;-46
2021/10/19 11:21:52;;;;;;;9.10;5.88;;;;;;;15.60;100.00;101580.25;4992135;28;20751;-47
2021/10/19 11:24:21;;;;;;;10.85;5.57;;;;;;;15.61;100.00;101570.88;4991575;28;20061;-46